Cohasset Beach, Washington
Current Conditions -  °F | °C
As of 10:53 PM on Wednesday 17 Dec 2014 (Local Time) from KHQM Reporting Station
Haze Haze  
Wind Chill: 44°   Ceiling: 1700
Heat Index: 46°   Visibility: 6mi
Dew Point: 45°   Wind: 5mph
Humidity: 96%   Direction: 70°ENE
Pressure: 29.92"   Gusts: NA
Location:  46.8679°N, 124.101°W
Report Text: KHQM 180653Z AUTO 07004KT 6SM BR OVC017 08/07 A2992 RMK AO2 SLP134 T00780072
Loading
Personal Weather Stations






























Interactive Weather Map New forecast layout! Learn more

10-Day Weather Forecast

Advertisements
Track Severe Weather on mobile